createdAt,value
2022-10-20T00:00:05.468Z,69.92
2022-10-20T00:05:13.150Z,69.79
2022-10-20T00:10:20.350Z,69.72
2022-10-20T00:15:27.302Z,69.84
2022-10-20T00:20:34.344Z,69.84
2022-10-20T00:25:41.410Z,69.96
2022-10-20T00:30:48.378Z,70.02
2022-10-20T00:35:55.269Z,70.33
2022-10-20T00:41:03.313Z,70.38
2022-10-20T00:46:12.125Z,70.25
2022-10-20T00:51:21.170Z,70.24
2022-10-20T00:56:28.174Z,70.36
2022-10-20T01:01:35.775Z,70.26
2022-10-20T01:06:42.828Z,70.24
2022-10-20T01:12:00.920Z,70.20
2022-10-20T01:17:18.153Z,70.24
2022-10-20T01:22:40.945Z,70.43
2022-10-20T01:27:49.709Z,70.60
2022-10-20T01:33:09.699Z,70.44
2022-10-20T01:38:24.670Z,70.55
2022-10-20T01:43:35.923Z,70.63
2022-10-20T01:48:44.661Z,70.61
2022-10-20T01:53:51.808Z,70.68
2022-10-20T01:59:23.172Z,70.76
2022-10-20T02:04:40.505Z,70.92
2022-10-20T02:09:52.183Z,71.07
2022-10-20T02:14:59.691Z,71.09
2022-10-20T02:20:09.740Z,71.02
2022-10-20T02:25:17.442Z,71.04
2022-10-20T02:30:24.676Z,71.04
2022-10-20T02:35:34.280Z,71.09
2022-10-20T02:40:41.277Z,71.35
2022-10-20T02:45:48.179Z,71.38
2022-10-20T02:50:55.117Z,71.53
2022-10-20T02:56:02.313Z,71.57
2022-10-20T03:01:09.478Z,71.35
2022-10-20T03:06:17.451Z,71.28
2022-10-20T03:11:22.805Z,71.26
2022-10-20T03:16:29.880Z,71.42
2022-10-20T03:21:36.832Z,71.42
2022-10-20T03:26:43.814Z,71.46
2022-10-20T03:31:50.728Z,71.59
2022-10-20T03:36:57.609Z,71.78
2022-10-20T03:42:04.670Z,71.84
2022-10-20T03:47:14.618Z,71.80
2022-10-20T03:52:21.628Z,71.80
2022-10-20T03:57:28.926Z,71.80
2022-10-20T04:02:39.702Z,71.90
2022-10-20T04:07:47.089Z,71.92
2022-10-20T04:12:54.064Z,72.03
2022-10-20T04:18:01.083Z,72.00
2022-10-20T04:23:08.035Z,72.13
2022-10-20T04:28:15.677Z,72.16
2022-10-20T04:33:22.525Z,72.12
2022-10-20T04:38:30.783Z,72.02
2022-10-20T04:43:37.902Z,72.04
2022-10-20T04:48:46.738Z,72.15
2022-10-20T04:53:53.677Z,72.30
2022-10-20T04:59:01.783Z,72.26
2022-10-20T05:04:08.721Z,72.17
2022-10-20T05:09:16.806Z,72.40
2022-10-20T05:14:24.297Z,72.31
2022-10-20T05:19:31.209Z,72.32
2022-10-20T05:24:38.475Z,72.26
2022-10-20T05:29:45.455Z,72.27
2022-10-20T05:34:52.460Z,72.32
2022-10-20T05:40:00.031Z,72.26
2022-10-20T05:45:08.695Z,72.43
2022-10-20T05:50:15.954Z,72.51
2022-10-20T05:55:23.661Z,72.77
2022-10-20T06:00:32.989Z,73.06
2022-10-20T06:05:40.189Z,73.24
2022-10-20T06:10:47.378Z,73.22
2022-10-20T06:15:55.788Z,73.11
2022-10-20T06:21:07.836Z,73.23
2022-10-20T06:26:17.834Z,73.13
2022-10-20T06:31:27.480Z,73.09
2022-10-20T06:36:38.181Z,72.93
2022-10-20T06:41:51.813Z,72.93
2022-10-20T06:46:59.084Z,73.00
2022-10-20T06:52:06.328Z,73.08
2022-10-20T06:57:13.214Z,72.96
2022-10-20T07:02:22.062Z,72.76
2022-10-20T07:07:29.020Z,72.57
2022-10-20T07:12:36.220Z,72.48
2022-10-20T07:17:43.449Z,72.48
2022-10-20T07:22:50.406Z,72.26
2022-10-20T07:28:14.166Z,72.00
2022-10-20T07:33:23.314Z,71.67
2022-10-20T07:38:32.565Z,71.55
2022-10-20T07:43:40.551Z,71.44
2022-10-20T07:48:49.379Z,70.75
2022-10-20T07:54:00.755Z,70.44
2022-10-20T07:59:57.606Z,70.35
2022-10-20T08:05:09.930Z,69.31
2022-10-20T08:10:18.972Z,68.74
2022-10-20T08:15:55.052Z,68.59
2022-10-20T08:21:12.080Z,67.98
2022-10-20T08:26:22.454Z,67.20
2022-10-20T08:31:29.547Z,66.43
2022-10-20T08:36:37.428Z,66.14
2022-10-20T08:47:29.381Z,65.25
2022-10-20T08:52:43.872Z,64.41
2022-10-20T08:57:52.125Z,63.91
2022-10-20T09:03:02.835Z,63.86
2022-10-20T09:08:13.795Z,63.75
2022-10-20T09:13:25.535Z,63.18
2022-10-20T09:18:36.029Z,62.53
2022-10-20T09:29:14.346Z,62.33
2022-10-20T09:34:32.824Z,62.55
2022-10-20T09:39:55.134Z,61.65
2022-10-20T09:45:07.639Z,60.99
2022-10-20T09:50:29.609Z,61.47
2022-10-20T09:55:42.431Z,61.07
2022-10-20T10:01:01.675Z,60.27
2022-10-20T10:06:27.731Z,60.35
2022-10-20T10:11:37.719Z,60.24
2022-10-20T10:16:45.512Z,60.07
2022-10-20T10:21:54.028Z,60.38
2022-10-20T10:27:02.482Z,60.01
2022-10-20T10:32:17.812Z,59.77
2022-10-20T10:37:25.148Z,59.79
2022-10-20T10:42:46.964Z,59.88
2022-10-20T10:48:26.472Z,59.98
2022-10-20T10:53:49.658Z,60.01
2022-10-20T10:58:59.941Z,59.90
2022-10-20T11:04:42.205Z,59.69
2022-10-20T11:10:04.259Z,59.93
2022-10-20T11:15:24.383Z,59.85
2022-10-20T11:20:47.159Z,59.74
2022-10-20T11:26:00.287Z,59.50
2022-10-20T11:31:08.054Z,59.62
2022-10-20T11:36:19.975Z,59.16
2022-10-20T11:41:33.584Z,59.14
2022-10-20T11:46:52.309Z,59.35
2022-10-20T11:52:29.541Z,59.14
2022-10-20T11:57:55.351Z,59.15
2022-10-20T12:03:48.351Z,59.23
2022-10-20T12:09:16.211Z,59.14
2022-10-20T12:14:29.125Z,58.97
2022-10-20T12:19:37.440Z,58.99
2022-10-20T12:25:05.193Z,58.89
2022-10-20T12:30:45.134Z,59.14
2022-10-20T12:36:14.651Z,59.05
2022-10-20T12:41:59.217Z,58.76
2022-10-20T12:47:10.431Z,58.84
2022-10-20T12:52:24.973Z,58.78
2022-10-20T12:57:41.851Z,58.73
2022-10-20T13:02:52.597Z,58.92
2022-10-20T13:08:30.172Z,59.01
2022-10-20T13:14:05.750Z,58.87
2022-10-20T13:19:22.733Z,58.91
2022-10-20T13:24:37.404Z,58.81
2022-10-20T13:29:50.022Z,58.93
2022-10-20T13:46:48.975Z,58.94
2022-10-20T13:52:11.652Z,58.92
2022-10-20T13:57:31.875Z,58.92
2022-10-20T14:02:40.594Z,59.06
2022-10-20T14:07:48.178Z,59.01
2022-10-20T14:13:02.492Z,59.15
2022-10-20T14:18:25.358Z,59.25
2022-10-20T14:23:39.223Z,59.30
2022-10-20T14:28:47.741Z,59.37
2022-10-20T14:33:55.387Z,59.22
2022-10-20T14:39:04.394Z,59.38
2022-10-20T14:44:30.753Z,59.41
2022-10-20T14:49:43.329Z,59.48
2022-10-20T14:54:51.691Z,59.41
2022-10-20T15:00:04.162Z,59.39
2022-10-20T15:05:34.232Z,59.52
2022-10-20T15:10:41.906Z,59.53
2022-10-20T15:15:49.196Z,59.90
2022-10-20T15:20:57.615Z,59.91
2022-10-20T15:26:07.034Z,59.87
2022-10-20T15:31:23.383Z,59.98
2022-10-20T15:36:33.395Z,60.15
2022-10-20T15:41:41.255Z,60.30
2022-10-20T15:46:48.543Z,60.38
2022-10-20T15:51:55.835Z,60.44
2022-10-20T15:57:03.024Z,60.81
2022-10-20T16:02:14.269Z,60.94
2022-10-20T16:07:21.381Z,60.97
2022-10-20T16:12:28.424Z,61.09
2022-10-20T16:17:35.734Z,61.12
2022-10-20T16:22:43.081Z,61.14
2022-10-20T16:27:50.207Z,61.41
2022-10-20T16:32:57.152Z,61.53
2022-10-20T16:38:04.624Z,61.68
2022-10-20T16:43:11.852Z,61.62
2022-10-20T16:48:18.835Z,61.59
2022-10-20T16:53:25.905Z,61.86
2022-10-20T16:58:33.157Z,62.06
2022-10-20T17:08:51.351Z,62.38
2022-10-20T17:13:59.053Z,62.54
2022-10-20T17:19:06.235Z,62.71
2022-10-20T17:24:14.962Z,62.92
2022-10-20T17:29:25.958Z,63.00
2022-10-20T17:34:34.059Z,63.11
2022-10-20T17:39:43.190Z,63.17
2022-10-20T17:44:50.205Z,63.26
2022-10-20T17:49:57.428Z,63.56
2022-10-20T17:55:09.620Z,63.70
2022-10-20T18:00:26.887Z,63.87
2022-10-20T18:05:40.695Z,63.92
2022-10-20T18:10:49.245Z,64.11
2022-10-20T18:15:56.416Z,64.29
2022-10-20T18:21:04.240Z,64.28
2022-10-20T18:26:13.861Z,64.34
2022-10-20T18:31:23.355Z,64.49
2022-10-20T18:36:31.190Z,64.61
2022-10-20T18:41:40.430Z,64.77
2022-10-20T18:46:48.618Z,65.02
2022-10-20T18:51:56.278Z,65.26
2022-10-20T18:57:06.482Z,65.39
2022-10-20T19:02:14.112Z,65.46
2022-10-20T19:07:21.247Z,65.66
2022-10-20T19:12:28.257Z,65.64
2022-10-20T19:17:36.892Z,65.85
2022-10-20T19:22:44.732Z,65.93
2022-10-20T19:27:50.535Z,66.00
2022-10-20T19:33:00.192Z,66.16
2022-10-20T19:38:09.124Z,66.11
2022-10-20T19:43:17.753Z,66.23
2022-10-20T19:48:25.248Z,66.38
2022-10-20T19:53:40.922Z,66.59
2022-10-20T19:59:00.070Z,66.69
2022-10-20T20:04:12.879Z,66.74
2022-10-20T20:09:30.564Z,66.89
2022-10-20T20:14:39.051Z,67.05
2022-10-20T20:19:46.985Z,67.23
2022-10-20T20:24:54.639Z,67.33
2022-10-20T20:30:03.994Z,67.52
2022-10-20T20:35:12.762Z,67.54
2022-10-20T20:40:20.807Z,67.76
2022-10-20T20:45:33.951Z,68.02
2022-10-20T20:50:42.626Z,68.04
2022-10-20T20:55:57.912Z,68.19
2022-10-20T21:01:10.606Z,68.18
2022-10-20T21:06:20.982Z,68.41
2022-10-20T21:11:30.791Z,68.65
2022-10-20T21:16:40.742Z,68.72
2022-10-20T21:21:57.581Z,68.71
2022-10-20T21:27:05.792Z,68.83
2022-10-20T21:32:11.683Z,69.06
2022-10-20T21:37:19.674Z,69.08
2022-10-20T21:42:27.132Z,69.19
2022-10-20T21:47:34.895Z,69.29
2022-10-20T21:52:42.484Z,69.43
2022-10-20T21:57:51.653Z,69.48
2022-10-20T22:03:00.570Z,69.53
2022-10-20T22:08:08.870Z,69.60
2022-10-20T22:13:17.155Z,69.69
2022-10-20T22:18:25.546Z,69.88
2022-10-20T22:23:33.518Z,69.86
2022-10-20T22:28:42.491Z,69.98
2022-10-20T22:33:54.519Z,70.00
2022-10-20T22:39:06.846Z,70.11
2022-10-20T22:44:14.638Z,70.12
2022-10-20T22:49:24.200Z,70.20
2022-10-20T22:54:32.705Z,70.38
2022-10-20T22:59:43.118Z,70.65
2022-10-20T23:04:52.947Z,70.56
2022-10-20T23:10:02.056Z,70.63
2022-10-20T23:15:11.085Z,70.84
2022-10-20T23:20:21.689Z,71.09
2022-10-20T23:25:31.849Z,71.02
2022-10-20T23:30:40.184Z,71.10
2022-10-20T23:35:49.738Z,71.33
2022-10-20T23:40:58.180Z,71.34
2022-10-20T23:46:20.571Z,71.29
2022-10-20T23:51:29.101Z,71.13
2022-10-20T23:56:37.338Z,71.34
